Time;durP1;ratioP1;P1;durP2;ratioP2;P2;SDS_P1;SDS_P2;PMS_P1;PMS_P2;Temp;Humidity;BMP_temperature;BMP_pressure;BME280_temperature;BME280_humidity;BME280_pressure;Samples;Min_cycle;Max_cycle;Signal;HPM_P1;HPM_P2
2023/01/15 00:01:43;;;;;;;1.90;0.70;;;9.00;99.90;;;;;;5071164;28;20211;-74
2023/01/15 00:04:12;;;;;;;1.17;0.97;;;9.10;99.90;;;;;;5074258;28;20206;-74
2023/01/15 00:06:40;;;;;;;1.10;0.80;;;9.10;99.90;;;;;;5068410;28;20242;-74
2023/01/15 00:09:07;;;;;;;2.33;0.67;;;9.10;99.90;;;;;;5071399;28;20751;-74
2023/01/15 00:11:33;;;;;;;1.53;0.70;;;9.20;99.90;;;;;;5071889;28;20183;-75
2023/01/15 00:13:59;;;;;;;0.93;0.70;;;9.20;99.90;;;;;;5062290;28;20215;-74
2023/01/15 00:16:26;;;;;;;1.03;0.70;;;9.10;99.90;;;;;;5071308;28;20696;-75
2023/01/15 00:18:57;;;;;;;1.77;0.60;;;9.10;99.90;;;;;;5073760;28;20210;-75
2023/01/15 00:21:24;;;;;;;1.37;0.80;;;9.20;99.90;;;;;;5072986;28;20612;-75
2023/01/15 00:29:21;;;;;;;0.50;0.50;;;9.20;99.90;;;;;;5071286;28;20602;-74
2023/01/15 00:31:57;;;;;;;1.53;0.87;;;9.20;99.90;;;;;;5051160;28;20226;-74
2023/01/15 00:34:23;;;;;;;1.10;0.60;;;9.20;99.90;;;;;;5067968;28;20249;-75
2023/01/15 00:36:49;;;;;;;1.53;0.77;;;9.20;99.90;;;;;;5059004;28;20218;-74
2023/01/15 00:39:15;;;;;;;0.73;0.70;;;9.20;99.90;;;;;;5074551;28;20305;-74
2023/01/15 00:41:41;;;;;;;1.03;0.87;;;9.20;99.90;;;;;;5070726;28;20265;-74
2023/01/15 00:44:06;;;;;;;0.90;0.53;;;9.20;99.90;;;;;;5070931;28;20290;-77
2023/01/15 00:46:32;;;;;;;0.97;0.50;;;9.20;99.90;;;;;;5072404;28;20211;-75
2023/01/15 00:48:58;;;;;;;0.83;0.73;;;9.20;99.90;;;;;;5078782;28;20224;-74
2023/01/15 00:51:23;;;;;;;0.90;0.50;;;9.20;99.90;;;;;;5076614;28;20699;-76
2023/01/15 00:53:49;;;;;;;1.20;0.80;;;9.20;99.90;;;;;;5074985;28;20213;-76
2023/01/15 00:56:15;;;;;;;0.70;0.60;;;9.30;99.90;;;;;;5078737;28;20247;-76
2023/01/15 00:58:41;;;;;;;1.43;0.70;;;9.30;99.90;;;;;;5059014;28;20219;-75
2023/01/15 01:01:07;;;;;;;1.70;0.90;;;9.30;99.90;;;;;;5054895;28;20272;-75
2023/01/15 01:03:32;;;;;;;0.60;0.40;;;9.20;99.90;;;;;;5077738;28;20211;-74
2023/01/15 01:06:01;;;;;;;0.43;0.40;;;9.20;99.90;;;;;;5074885;28;20269;-75
2023/01/15 01:08:28;;;;;;;1.17;0.40;;;9.20;99.90;;;;;;5057519;28;20317;-75
2023/01/15 01:11:09;;;;;;;0.87;0.43;;;9.20;99.90;;;;;;5079158;28;20217;-75
2023/01/15 01:13:36;;;;;;;0.53;0.40;;;9.20;99.90;;;;;;5073806;28;20218;-75
2023/01/15 01:16:02;;;;;;;1.17;0.67;;;9.20;99.90;;;;;;5077759;28;20234;-74
2023/01/15 01:18:28;;;;;;;0.80;0.43;;;9.20;99.90;;;;;;5075570;28;20249;-75
2023/01/15 01:20:54;;;;;;;0.40;0.40;;;9.30;99.90;;;;;;5073859;28;20183;-75
2023/01/15 01:23:21;;;;;;;2.07;0.80;;;9.30;99.90;;;;;;5078175;28;20203;-75
2023/01/15 01:25:46;;;;;;;1.50;0.60;;;9.30;99.90;;;;;;5073409;28;20241;-75
2023/01/15 01:28:12;;;;;;;2.70;0.57;;;9.40;99.90;;;;;;5057021;28;20718;-76
2023/01/15 01:30:38;;;;;;;1.43;0.50;;;9.40;99.90;;;;;;5077674;28;20260;-75
2023/01/15 01:33:04;;;;;;;0.87;0.63;;;9.40;99.90;;;;;;5075154;28;20187;-75
2023/01/15 01:35:29;;;;;;;1.47;0.40;;;9.40;99.90;;;;;;5056253;28;20215;-73
2023/01/15 01:37:55;;;;;;;0.50;0.50;;;9.40;99.90;;;;;;5077824;28;20892;-75
2023/01/15 01:40:20;;;;;;;1.53;0.57;;;9.40;99.90;;;;;;5072667;28;20219;-75
2023/01/15 01:42:46;;;;;;;1.03;0.60;;;9.50;99.90;;;;;;5054314;28;20276;-76
2023/01/15 01:45:24;;;;;;;0.50;0.50;;;9.40;99.90;;;;;;5074995;28;20660;-75
2023/01/15 01:47:53;;;;;;;0.73;0.50;;;9.40;99.90;;;;;;5071184;28;20696;-74
2023/01/15 01:50:19;;;;;;;2.10;0.70;;;9.40;99.90;;;;;;5058375;28;20234;-74
2023/01/15 01:52:50;;;;;;;3.63;2.00;;;9.50;99.90;;;;;;5074503;28;20754;-72
2023/01/15 01:55:19;;;;;;;1.57;0.60;;;9.50;99.90;;;;;;5056381;28;20236;-74
2023/01/15 01:57:46;;;;;;;0.50;0.40;;;9.50;99.90;;;;;;5059122;28;20211;-74
2023/01/15 02:00:14;;;;;;;0.90;0.50;;;9.50;99.90;;;;;;5068487;28;20187;-73
2023/01/15 02:02:42;;;;;;;1.57;0.57;;;9.50;99.90;;;;;;5074899;28;20221;-74
2023/01/15 02:05:34;;;;;;;0.57;0.40;;;9.50;99.90;;;;;;5057322;28;20211;-74
2023/01/15 02:08:00;;;;;;;1.10;0.70;;;9.50;99.90;;;;;;5060110;28;20684;-74
2023/01/15 02:10:27;;;;;;;0.73;0.40;;;9.50;99.90;;;;;;5075904;28;20215;-73
2023/01/15 02:13:18;;;;;;;0.50;0.50;;;9.50;99.90;;;;;;5074144;28;20734;-74
2023/01/15 02:15:51;;;;;;;0.70;0.40;;;9.40;99.90;;;;;;5072741;28;20733;-74
2023/01/15 02:18:35;;;;;;;0.83;0.50;;;9.40;99.90;;;;;;5069814;28;20203;-75
2023/01/15 02:21:11;;;;;;;0.83;0.67;;;9.40;99.90;;;;;;5070071;28;20183;-76
2023/01/15 02:24:15;;;;;;;1.47;0.53;;;9.40;99.90;;;;;;5055764;28;20300;-73
2023/01/15 02:27:02;;;;;;;1.37;0.60;;;9.40;99.90;;;;;;5032044;28;20273;-74
2023/01/15 02:29:43;;;;;;;2.70;0.60;;;9.40;99.90;;;;;;5076765;28;20272;-75
2023/01/15 02:32:30;;;;;;;1.20;0.50;;;9.30;99.90;;;;;;5071740;28;20210;-75
2023/01/15 02:35:02;;;;;;;0.93;0.47;;;9.30;99.90;;;;;;5046845;28;20258;-74
2023/01/15 02:37:32;;;;;;;0.60;0.60;;;9.30;99.90;;;;;;5071334;28;20215;-74
2023/01/15 02:40:00;;;;;;;0.40;0.40;;;9.30;99.90;;;;;;5073187;28;20211;-74
2023/01/15 02:42:28;;;;;;;0.73;0.60;;;9.30;99.90;;;;;;5054942;28;20226;-75
2023/01/15 02:44:57;;;;;;;2.30;0.50;;;9.30;99.90;;;;;;5057348;28;20187;-74
2023/01/15 02:47:27;;;;;;;0.50;0.40;;;9.30;99.90;;;;;;5070956;28;20214;-74
2023/01/15 02:49:56;;;;;;;0.60;0.47;;;9.30;99.90;;;;;;5078495;28;20309;-74
2023/01/15 02:52:30;;;;;;;0.73;0.40;;;9.30;99.90;;;;;;5069110;28;20246;-74
2023/01/15 02:55:00;;;;;;;0.63;0.40;;;9.30;99.90;;;;;;5054966;28;20214;-74
2023/01/15 02:57:29;;;;;;;0.90;0.50;;;9.30;99.90;;;;;;5076865;28;20576;-74
2023/01/15 02:59:57;;;;;;;0.60;0.50;;;9.30;99.90;;;;;;5073092;28;20187;-74
2023/01/15 03:02:28;;;;;;;0.77;0.40;;;9.30;99.90;;;;;;5072694;28;20695;-75
2023/01/15 03:05:10;;;;;;;2.00;0.60;;;9.30;99.90;;;;;;5057030;28;20210;-74
2023/01/15 03:07:43;;;;;;;0.90;0.50;;;9.30;99.90;;;;;;5070339;28;20234;-73
2023/01/15 03:10:10;;;;;;;1.30;0.60;;;9.30;99.90;;;;;;5071290;28;20213;-74
2023/01/15 03:13:01;;;;;;;0.67;0.40;;;9.30;99.90;;;;;;5072112;28;20317;-73
2023/01/15 03:19:12;;;;;;;1.33;0.40;;;9.20;99.90;;;;;;5071072;28;20248;-73
2023/01/15 03:21:38;;;;;;;2.03;0.57;;;9.30;99.90;;;;;;5048643;28;20676;-73
2023/01/15 03:24:05;;;;;;;1.23;1.03;;;9.30;99.90;;;;;;5074966;28;20189;-75
2023/01/15 03:26:30;;;;;;;12.00;6.63;;;9.30;99.90;;;;;;5053379;28;20680;-75
2023/01/15 03:28:57;;;;;;;22.03;12.20;;;9.30;99.90;;;;;;5074800;28;20222;-75
2023/01/15 03:31:23;;;;;;;2.27;1.40;;;9.30;99.90;;;;;;5055191;28;20207;-74
2023/01/15 03:33:48;;;;;;;1.53;0.83;;;9.30;99.90;;;;;;5070473;28;20206;-74
2023/01/15 03:36:14;;;;;;;2.33;0.80;;;9.30;99.90;;;;;;5060805;28;20552;-75
2023/01/15 03:38:40;;;;;;;1.23;0.60;;;9.30;99.90;;;;;;5064833;28;20612;-73
2023/01/15 03:41:19;;;;;;;0.73;0.30;;;9.30;99.90;;;;;;5068086;28;20253;-74
2023/01/15 03:44:13;;;;;;;0.47;0.43;;;9.30;99.90;;;;;;5065298;28;20222;-75
2023/01/15 03:47:00;;;;;;;0.47;0.43;;;9.30;99.90;;;;;;5066733;28;20206;-74
2023/01/15 03:49:52;;;;;;;1.63;0.60;;;9.40;99.90;;;;;;5066292;28;20219;-75
2023/01/15 03:52:47;;;;;;;1.03;0.60;;;9.30;99.90;;;;;;5018383;28;20207;-75
2023/01/15 03:55:15;;;;;;;1.30;0.57;;;9.30;99.90;;;;;;5064019;28;20209;-74
2023/01/15 03:57:49;;;;;;;1.83;0.60;;;9.30;99.90;;;;;;5050897;28;20696;-74
2023/01/15 04:00:28;;;;;;;0.60;0.60;;;9.30;99.90;;;;;;5050040;28;20228;-74
2023/01/15 04:02:56;;;;;;;1.50;0.90;;;9.30;99.90;;;;;;5049994;28;20187;-75
2023/01/15 04:05:24;;;;;;;0.80;0.60;;;9.40;99.90;;;;;;5067342;28;20230;-75
2023/01/15 04:07:51;;;;;;;2.13;0.90;;;9.20;99.90;;;;;;5048872;28;20215;-75
2023/01/15 04:10:17;;;;;;;1.97;0.70;;;9.00;99.90;;;;;;5067502;28;20218;-75
2023/01/15 04:12:43;;;;;;;1.53;0.90;;;8.80;99.90;;;;;;5067427;28;20264;-74
2023/01/15 04:15:11;;;;;;;2.60;0.60;;;8.70;99.90;;;;;;5067515;28;20201;-74
2023/01/15 04:17:36;;;;;;;1.53;1.10;;;8.60;99.90;;;;;;5068130;28;20677;-74
2023/01/15 04:20:02;;;;;;;1.40;0.90;;;8.50;99.90;;;;;;5067063;28;20361;-74
2023/01/15 04:22:29;;;;;;;1.47;0.73;;;8.50;99.90;;;;;;5049420;28;20207;-75
2023/01/15 04:24:55;;;;;;;2.00;1.10;;;8.40;99.90;;;;;;5048842;28;20263;-74
2023/01/15 04:27:21;;;;;;;1.53;0.70;;;8.30;99.90;;;;;;5067252;28;20191;-75
2023/01/15 04:29:47;;;;;;;1.53;0.60;;;8.30;99.90;;;;;;5049415;28;20780;-74
2023/01/15 04:32:12;;;;;;;1.00;0.53;;;8.20;99.90;;;;;;5067545;28;20206;-74
2023/01/15 04:34:38;;;;;;;0.70;0.60;;;8.00;99.90;;;;;;5067365;28;20207;-74
2023/01/15 04:37:04;;;;;;;1.67;0.50;;;7.90;99.90;;;;;;5068253;28;20206;-74
2023/01/15 04:39:29;;;;;;;0.80;0.40;;;7.70;99.90;;;;;;5049439;28;20218;-74
2023/01/15 04:44:39;;;;;;;2.47;0.80;;;7.60;99.90;;;;;;5065089;28;20214;-74
2023/01/15 04:47:05;;;;;;;1.57;0.73;;;7.50;99.90;;;;;;5067295;28;20203;-75
2023/01/15 04:49:31;;;;;;;0.97;0.60;;;7.50;99.90;;;;;;5067368;28;20237;-75
2023/01/15 04:51:56;;;;;;;3.63;0.80;;;7.40;99.90;;;;;;5048887;28;20210;-75
2023/01/15 04:54:22;;;;;;;3.63;1.23;;;7.40;99.90;;;;;;5067002;28;20333;-74
2023/01/15 04:56:50;;;;;;;4.73;1.20;;;7.30;99.90;;;;;;5069475;28;20206;-74
2023/01/15 04:59:19;;;;;;;2.63;1.00;;;7.30;99.90;;;;;;5049126;28;20588;-75
2023/01/15 05:01:45;;;;;;;1.88;0.73;;;7.40;99.90;;;;;;5048087;28;20414;-73
2023/01/15 05:04:10;;;;;;;2.27;0.60;;;7.30;99.90;;;;;;5066764;28;20198;-75
2023/01/15 05:06:36;;;;;;;0.40;0.40;;;7.30;99.90;;;;;;5066769;28;20218;-75
2023/01/15 05:09:04;;;;;;;1.80;0.67;;;7.30;99.90;;;;;;5049247;28;20211;-75
2023/01/15 05:11:30;;;;;;;1.03;0.60;;;7.20;99.90;;;;;;5049758;28;20215;-75
2023/01/15 05:13:55;;;;;;;2.60;0.60;;;7.20;99.90;;;;;;5049214;28;20292;-75
2023/01/15 05:16:24;;;;;;;2.30;0.70;;;7.20;99.90;;;;;;5067769;28;20225;-75
2023/01/15 05:18:51;;;;;;;2.40;0.67;;;7.20;99.90;;;;;;5048978;28;20215;-74
2023/01/15 05:21:40;;;;;;;0.60;0.40;;;7.30;99.90;;;;;;5067240;28;20198;-75
2023/01/15 05:24:07;;;;;;;0.87;0.83;;;7.30;99.90;;;;;;5066578;28;20183;-75
2023/01/15 05:26:34;;;;;;;1.50;0.67;;;7.30;99.90;;;;;;5067986;28;20183;-75
2023/01/15 05:29:00;;;;;;;5.87;2.23;;;7.20;99.90;;;;;;5066980;28;20229;-75
2023/01/15 05:31:27;;;;;;;2.83;1.00;;;7.20;99.90;;;;;;5048892;28;20202;-73
2023/01/15 05:33:54;;;;;;;0.87;0.40;;;7.20;99.90;;;;;;5067163;28;20203;-74
2023/01/15 05:36:25;;;;;;;1.67;0.43;;;7.20;99.90;;;;;;5067332;28;20248;-73
2023/01/15 05:38:53;;;;;;;0.97;0.60;;;7.20;99.90;;;;;;5070832;28;20759;-73
2023/01/15 05:44:08;;;;;;;1.37;0.60;;;7.10;99.90;;;;;;5069832;28;20218;-74
2023/01/15 05:46:36;;;;;;;0.87;0.40;;;7.10;99.90;;;;;;5070743;28;20214;-73
2023/01/15 05:49:05;;;;;;;1.57;0.50;;;7.10;99.90;;;;;;5051732;28;20248;-75
2023/01/15 05:51:30;;;;;;;0.83;0.30;;;7.10;99.90;;;;;;5070342;28;20234;-73
2023/01/15 05:53:57;;;;;;;0.90;0.47;;;7.10;99.90;;;;;;5069972;28;20175;-74
2023/01/15 05:56:22;;;;;;;0.70;0.53;;;7.10;99.90;;;;;;5079613;28;20202;-74
2023/01/15 05:58:48;;;;;;;0.50;0.33;;;7.10;99.90;;;;;;5056777;28;20218;-74
2023/01/15 06:01:14;;;;;;;0.60;0.50;;;7.00;99.90;;;;;;5072073;28;20225;-73
2023/01/15 06:03:42;;;;;;;1.97;0.80;;;7.10;99.90;;;;;;5069956;28;20207;-72
2023/01/15 06:06:17;;;;;;;1.07;0.50;;;7.10;99.90;;;;;;5075332;28;20250;-74
2023/01/15 06:08:44;;;;;;;1.83;0.50;;;7.10;99.90;;;;;;5071168;28;20283;-75
2023/01/15 06:11:10;;;;;;;4.80;0.90;;;7.10;99.90;;;;;;5059986;28;20963;-75
2023/01/15 06:13:38;;;;;;;0.47;0.30;;;7.10;99.90;;;;;;5072668;28;20658;-75
2023/01/15 06:16:04;;;;;;;2.00;0.50;;;7.10;99.90;;;;;;5076687;28;20207;-76
2023/01/15 06:18:32;;;;;;;0.50;0.50;;;7.10;99.90;;;;;;5056865;28;20592;-76
2023/01/15 06:21:02;;;;;;;1.67;0.40;;;7.10;99.90;;;;;;5054677;28;20194;-75
2023/01/15 06:23:28;;;;;;;1.20;0.50;;;7.20;99.90;;;;;;5058668;28;20260;-76
2023/01/15 06:25:54;;;;;;;0.60;0.30;;;7.20;99.90;;;;;;5075058;28;20290;-76
2023/01/15 06:28:19;;;;;;;1.57;0.70;;;7.20;99.90;;;;;;5070895;28;20261;-76
2023/01/15 06:30:45;;;;;;;1.83;0.50;;;7.20;99.90;;;;;;5076199;28;20372;-76
2023/01/15 06:33:10;;;;;;;1.23;0.70;;;7.20;99.90;;;;;;5070208;28;20189;-75
2023/01/15 06:35:36;;;;;;;2.13;0.50;;;7.30;99.90;;;;;;5056455;28;20755;-75
2023/01/15 06:38:02;;;;;;;2.10;0.37;;;7.20;99.90;;;;;;5059851;28;20230;-76
2023/01/15 06:40:28;;;;;;;2.80;0.63;;;7.10;99.90;;;;;;5072434;28;20207;-75
2023/01/15 06:48:26;;;;;;;1.43;0.50;;;7.20;99.90;;;;;;5070789;28;20332;-75
2023/01/15 06:50:52;;;;;;;3.00;0.40;;;7.20;99.90;;;;;;5077154;28;20350;-75
2023/01/15 06:53:18;;;;;;;2.40;0.67;;;7.10;99.90;;;;;;5074305;28;20213;-76
2023/01/15 06:55:44;;;;;;;0.77;0.43;;;7.00;99.90;;;;;;5072691;28;20202;-74
2023/01/15 06:58:10;;;;;;;0.63;0.40;;;7.00;99.90;;;;;;5059513;28;20699;-75
2023/01/15 07:00:36;;;;;;;1.93;0.50;;;7.00;99.90;;;;;;5090856;23;20594;-74
2023/01/15 07:03:03;;;;;;;0.90;0.40;;;7.10;99.90;;;;;;5077959;28;20210;-76
2023/01/15 07:05:29;;;;;;;1.83;0.50;;;7.10;99.90;;;;;;5072894;28;20210;-75
2023/01/15 07:07:56;;;;;;;0.60;0.40;;;7.20;99.90;;;;;;5045631;28;20286;-73
2023/01/15 07:10:21;;;;;;;1.43;0.33;;;7.20;99.90;;;;;;5075197;28;20218;-75
2023/01/15 07:12:47;;;;;;;1.30;0.70;;;7.20;99.90;;;;;;5063580;28;20260;-74
2023/01/15 07:15:13;;;;;;;0.53;0.40;;;7.10;99.90;;;;;;5044315;28;20191;-75
2023/01/15 07:17:38;;;;;;;2.23;0.70;;;7.10;99.90;;;;;;5064823;28;20198;-74
2023/01/15 07:20:04;;;;;;;0.73;0.50;;;7.10;99.90;;;;;;5064363;28;20231;-75
2023/01/15 07:22:30;;;;;;;0.47;0.30;;;7.00;99.90;;;;;;5041990;28;20221;-75
2023/01/15 07:24:56;;;;;;;2.20;0.90;;;6.90;99.90;;;;;;5050265;28;20289;-74
2023/01/15 07:27:22;;;;;;;2.67;0.60;;;7.00;99.90;;;;;;5046372;28;20629;-73
2023/01/15 07:29:49;;;;;;;1.03;0.40;;;7.00;99.90;;;;;;5061649;28;20209;-75
2023/01/15 07:32:15;;;;;;;1.10;0.33;;;7.00;99.90;;;;;;5066277;28;20207;-76
2023/01/15 07:34:41;;;;;;;0.60;0.60;;;7.00;99.90;;;;;;5060888;28;20245;-76
2023/01/15 07:37:06;;;;;;;1.27;0.50;;;6.90;99.90;;;;;;5062829;28;20570;-76
2023/01/15 07:39:32;;;;;;;1.27;0.50;;;6.90;99.90;;;;;;5044728;28;20756;-77
2023/01/15 07:50:20;;;;;;;1.47;0.60;;;6.90;99.90;;;;;;5064879;28;20275;-77
2023/01/15 07:52:45;;;;;;;1.13;0.60;;;6.90;99.90;;;;;;5045720;28;20226;-77
2023/01/15 07:55:12;;;;;;;2.13;0.63;;;7.00;99.90;;;;;;5060048;28;20207;-77
2023/01/15 07:57:38;;;;;;;3.33;1.20;;;7.00;99.90;;;;;;5064201;28;20638;-75
2023/01/15 08:00:06;;;;;;;0.97;0.53;;;7.00;99.90;;;;;;5064120;28;20191;-77
2023/01/15 08:02:32;;;;;;;2.43;0.70;;;6.90;99.90;;;;;;5060241;28;20218;-78
2023/01/15 08:04:57;;;;;;;2.67;0.50;;;6.90;99.90;;;;;;5064648;28;20570;-77
2023/01/15 08:07:23;;;;;;;3.30;0.80;;;6.90;99.90;;;;;;5067594;28;20298;-76
2023/01/15 08:09:49;;;;;;;1.27;0.47;;;6.90;99.90;;;;;;5054980;28;20223;-76
2023/01/15 08:15:15;;;;;;;2.00;0.77;;;6.90;99.90;;;;;;5061057;28;20198;-76
2023/01/15 08:17:49;;;;;;;1.83;0.60;;;7.00;99.90;;;;;;5063708;28;20215;-74
2023/01/15 08:20:18;;;;;;;1.20;0.43;;;6.80;99.90;;;;;;5059620;28;20210;-75
2023/01/15 08:22:44;;;;;;;0.90;0.60;;;6.70;99.90;;;;;;5040524;28;20326;-74
2023/01/15 08:25:12;;;;;;;1.57;0.50;;;6.80;99.90;;;;;;5065355;28;20660;-76
2023/01/15 08:27:39;;;;;;;0.87;0.40;;;6.80;99.90;;;;;;5062514;28;20722;-73
2023/01/15 08:30:06;;;;;;;1.80;0.50;;;6.70;99.90;;;;;;5048902;28;20248;-76
2023/01/15 08:32:32;;;;;;;2.47;0.60;;;6.80;99.90;;;;;;5048493;28;20731;-75
2023/01/15 08:34:57;;;;;;;3.37;0.70;;;6.70;99.90;;;;;;5058585;28;20203;-76
2023/01/15 08:37:23;;;;;;;1.73;0.90;;;6.70;99.90;;;;;;5042904;28;20262;-76
2023/01/15 08:39:51;;;;;;;2.33;0.70;;;6.80;99.90;;;;;;5046899;28;20223;-76
2023/01/15 08:42:18;;;;;;;1.13;0.77;;;6.90;99.90;;;;;;5044063;28;20195;-76
2023/01/15 08:44:44;;;;;;;2.57;0.83;;;6.90;99.90;;;;;;5059525;28;20171;-75
2023/01/15 08:47:10;;;;;;;1.57;0.77;;;6.90;99.90;;;;;;5049861;28;20211;-76
2023/01/15 08:49:35;;;;;;;2.93;0.67;;;7.00;99.90;;;;;;5041200;28;20218;-76
2023/01/15 08:52:01;;;;;;;3.50;1.23;;;7.00;99.90;;;;;;5046293;28;20625;-76
2023/01/15 08:54:27;;;;;;;1.70;0.60;;;7.10;99.90;;;;;;5063231;28;20210;-75
2023/01/15 08:56:52;;;;;;;2.10;0.80;;;7.20;99.90;;;;;;5058053;28;20218;-77
2023/01/15 08:59:18;;;;;;;3.67;0.70;;;7.10;99.90;;;;;;5065321;28;20692;-76
2023/01/15 09:01:44;;;;;;;2.53;0.67;;;7.10;99.90;;;;;;5060300;28;20611;-74
2023/01/15 09:04:15;;;;;;;2.37;1.00;;;7.20;99.90;;;;;;5059585;28;20288;-77
2023/01/15 09:06:41;;;;;;;3.57;0.93;;;7.20;99.90;;;;;;5058623;28;20207;-76
2023/01/15 09:09:07;;;;;;;1.77;0.90;;;7.20;99.90;;;;;;5063953;28;20213;-75
2023/01/15 09:11:33;;;;;;;2.57;0.83;;;7.30;99.90;;;;;;5067801;28;20249;-77
2023/01/15 09:13:59;;;;;;;2.33;0.90;;;7.40;99.90;;;;;;5065724;28;20713;-76
2023/01/15 09:16:26;;;;;;;3.50;0.77;;;7.30;99.90;;;;;;5046186;28;20206;-76
2023/01/15 09:18:52;;;;;;;1.77;0.90;;;7.30;99.90;;;;;;5066616;28;20248;-76
2023/01/15 09:21:19;;;;;;;2.40;1.03;;;7.30;99.90;;;;;;5067103;28;20252;-75
2023/01/15 09:23:44;;;;;;;0.87;0.70;;;7.30;99.90;;;;;;5043576;28;20270;-76
2023/01/15 09:26:29;;;;;;;1.30;0.63;;;7.30;99.90;;;;;;5069374;28;20310;-76
2023/01/15 09:28:55;;;;;;;2.37;0.90;;;7.40;99.90;;;;;;5063266;28;20721;-73
2023/01/15 09:31:21;;;;;;;0.70;0.43;;;7.40;99.90;;;;;;5064044;28;20211;-75
2023/01/15 09:33:47;;;;;;;3.30;1.17;;;7.50;99.90;;;;;;5047790;28;20230;-76
2023/01/15 09:36:18;;;;;;;2.33;1.30;;;7.60;99.90;;;;;;5065041;28;20597;-76
2023/01/15 09:38:44;;;;;;;2.80;0.50;;;7.70;99.90;;;;;;5062914;28;20549;-76
2023/01/15 09:44:11;;;;;;;2.67;1.03;;;7.60;99.90;;;;;;5059463;28;20776;-77
2023/01/15 09:46:42;;;;;;;0.73;0.73;;;7.60;99.90;;;;;;5068443;28;20211;-76
2023/01/15 09:49:26;;;;;;;2.17;0.70;;;7.60;99.90;;;;;;5046280;28;20230;-77
2023/01/15 09:52:08;;;;;;;1.80;0.93;;;7.60;99.90;;;;;;5060252;28;20214;-76
2023/01/15 09:55:12;;;;;;;0.73;0.57;;;7.70;99.90;;;;;;5058794;28;20290;-77
2023/01/15 09:57:39;;;;;;;2.17;1.13;;;7.70;99.90;;;;;;5054774;28;20342;-75
2023/01/15 10:00:18;;;;;;;2.13;1.03;;;7.80;99.90;;;;;;5049400;28;20196;-77
2023/01/15 10:03:06;;;;;;;2.73;0.90;;;7.70;99.90;;;;;;5045909;28;20270;-76
2023/01/15 10:05:40;;;;;;;1.80;0.90;;;7.90;99.90;;;;;;5069157;28;20215;-77
2023/01/15 10:08:23;;;;;;;4.63;0.70;;;7.90;99.90;;;;;;5051099;28;20230;-76
2023/01/15 10:11:01;;;;;;;1.27;0.80;;;7.90;99.90;;;;;;5060605;28;20227;-75
2023/01/15 10:13:47;;;;;;;2.20;0.87;;;8.00;99.90;;;;;;5069702;28;20631;-76
2023/01/15 10:16:30;;;;;;;1.13;0.70;;;8.10;99.90;;;;;;5063421;28;20207;-76
2023/01/15 10:18:57;;;;;;;1.17;0.60;;;8.10;99.90;;;;;;5049124;28;20210;-75
2023/01/15 10:21:41;;;;;;;1.13;0.80;;;8.10;99.90;;;;;;5073894;28;20195;-74
2023/01/15 10:24:17;;;;;;;0.77;0.50;;;8.00;99.90;;;;;;5066195;28;20179;-74
2023/01/15 10:27:08;;;;;;;1.27;0.70;;;8.00;99.90;;;;;;5062615;28;20178;-75
2023/01/15 10:29:57;;;;;;;1.80;0.80;;;8.20;99.90;;;;;;5039784;28;20751;-75
2023/01/15 10:32:46;;;;;;;2.77;0.80;;;8.20;99.90;;;;;;5064036;28;20301;-76
2023/01/15 10:35:20;;;;;;;1.20;0.70;;;8.30;99.90;;;;;;5065169;28;20210;-76
2023/01/15 10:38:07;;;;;;;1.70;0.90;;;8.40;99.90;;;;;;5045406;28;20583;-76
2023/01/15 10:40:52;;;;;;;1.50;0.60;;;8.30;99.90;;;;;;5063483;28;20241;-75
2023/01/15 10:43:36;;;;;;;1.50;0.70;;;8.40;99.90;;;;;;5028157;28;20208;-76
2023/01/15 10:46:36;;;;;;;0.87;0.70;;;8.50;99.90;;;;;;5043680;28;20302;-73
2023/01/15 10:49:12;;;;;;;1.30;0.70;;;8.50;99.90;;;;;;5052312;28;20642;-76
2023/01/15 10:52:21;;;;;;;3.13;1.07;;;8.40;99.90;;;;;;5062725;28;20206;-74
2023/01/15 10:54:52;;;;;;;1.60;0.63;;;8.40;99.90;;;;;;5024085;28;20210;-76
2023/01/15 10:57:49;;;;;;;1.47;0.60;;;8.30;99.90;;;;;;5044019;28;20186;-77
2023/01/15 11:00:16;;;;;;;2.20;1.10;;;8.30;99.90;;;;;;5058466;28;20180;-78
2023/01/15 11:02:53;;;;;;;1.47;0.80;;;8.40;99.90;;;;;;5065689;28;20222;-77
2023/01/15 11:05:20;;;;;;;1.17;0.60;;;8.30;99.90;;;;;;5061886;28;20210;-75
2023/01/15 11:07:51;;;;;;;1.53;0.83;;;8.50;99.90;;;;;;5047453;28;20251;-76
2023/01/15 11:10:20;;;;;;;1.70;1.00;;;8.60;99.90;;;;;;5064707;28;20229;-76
2023/01/15 11:21:29;;;;;;;1.10;0.80;;;8.70;99.90;;;;;;5064618;28;20754;-75
2023/01/15 11:23:57;;;;;;;2.90;1.00;;;8.70;99.90;;;;;;5042841;28;20180;-76
2023/01/15 11:26:26;;;;;;;4.03;1.10;;;8.60;99.90;;;;;;5069124;28;20268;-76
2023/01/15 11:28:53;;;;;;;1.43;0.90;;;8.50;99.90;;;;;;5063297;28;20215;-77
2023/01/15 11:31:19;;;;;;;1.50;0.90;;;8.40;99.90;;;;;;5061644;28;20302;-76
2023/01/15 11:33:59;;;;;;;2.10;0.83;;;8.50;99.90;;;;;;5046731;28;20298;-76
2023/01/15 11:36:27;;;;;;;2.50;1.00;;;8.50;99.90;;;;;;5047641;28;20203;-76
2023/01/15 11:38:53;;;;;;;1.13;0.77;;;8.50;99.90;;;;;;5060800;28;20719;-75
2023/01/15 11:52:25;;;;;;;1.77;1.00;;;8.40;99.90;;;;;;5063900;28;20223;-77
2023/01/15 11:54:53;;;;;;;3.83;1.53;;;8.40;99.90;;;;;;5065872;28;20218;-76
2023/01/15 11:57:29;;;;;;;7.10;2.47;;;8.30;99.90;;;;;;5047508;28;20183;-77
2023/01/15 11:59:55;;;;;;;1.90;0.87;;;8.40;99.90;;;;;;5032889;28;20192;-76
2023/01/15 12:05:19;;;;;;;2.97;0.80;;;8.40;99.90;;;;;;5063427;28;20277;-76
2023/01/15 12:07:47;;;;;;;1.03;0.70;;;8.40;99.90;;;;;;5044714;28;20218;-77
2023/01/15 12:10:16;;;;;;;4.33;1.00;;;8.40;99.90;;;;;;5067477;28;20246;-77
2023/01/15 12:13:09;;;;;;;1.73;0.70;;;8.40;99.90;;;;;;5068443;28;20218;-76
2023/01/15 12:15:43;;;;;;;1.90;0.90;;;8.40;99.90;;;;;;5068113;28;20210;-75
2023/01/15 12:18:27;;;;;;;1.00;0.70;;;8.40;99.90;;;;;;5046170;28;20297;-76
2023/01/15 12:21:01;;;;;;;2.20;0.90;;;8.40;99.90;;;;;;5064698;28;20202;-77
2023/01/15 12:23:43;;;;;;;2.50;0.93;;;8.40;99.90;;;;;;5049164;28;20218;-77
2023/01/15 12:26:31;;;;;;;0.97;0.70;;;8.30;99.90;;;;;;5062933;28;20723;-77
2023/01/15 12:29:13;;;;;;;4.37;0.97;;;8.40;99.90;;;;;;5064339;28;20226;-76
2023/01/15 12:31:48;;;;;;;2.80;0.90;;;8.40;99.90;;;;;;5063433;28;20261;-74
2023/01/15 12:34:28;;;;;;;3.63;0.87;;;8.50;99.90;;;;;;5068759;28;20210;-76
2023/01/15 12:37:04;;;;;;;2.67;0.90;;;8.50;99.90;;;;;;5064616;28;20245;-77
2023/01/15 12:39:54;;;;;;;1.73;1.03;;;8.40;99.90;;;;;;5062290;28;20332;-76
2023/01/15 12:45:15;;;;;;;1.60;0.60;;;8.40;99.90;;;;;;5065488;28;20706;-76
2023/01/15 12:48:02;;;;;;;1.77;0.70;;;8.50;99.90;;;;;;5049981;28;20182;-77
2023/01/15 12:50:30;;;;;;;1.70;1.00;;;8.50;99.90;;;;;;5034758;28;20222;-75
2023/01/15 12:53:09;;;;;;;3.67;1.20;;;8.50;99.90;;;;;;5045626;28;20259;-75
2023/01/15 12:55:39;;;;;;;2.40;0.77;;;8.30;99.90;;;;;;5067055;28;20221;-75
2023/01/15 12:58:16;;;;;;;0.83;0.57;;;8.40;99.90;;;;;;5046297;28;20268;-76
2023/01/15 13:00:42;;;;;;;1.73;0.80;;;8.40;99.90;;;;;;5067801;28;20221;-75
2023/01/15 13:03:33;;;;;;;4.50;1.47;;;8.30;99.90;;;;;;5069867;22;20222;-75
2023/01/15 13:06:05;;;;;;;2.03;0.67;;;8.30;99.90;;;;;;5067627;28;20180;-74
2023/01/15 13:08:54;;;;;;;5.30;1.10;;;8.30;99.90;;;;;;5080274;28;20226;-74
2023/01/15 13:11:20;;;;;;;2.43;1.03;;;8.30;99.90;;;;;;5072385;28;20218;-73
2023/01/15 13:13:56;;;;;;;3.77;0.80;;;8.40;99.90;;;;;;5037987;28;20782;-74
2023/01/15 13:16:40;;;;;;;1.60;0.80;;;8.40;99.90;;;;;;5053898;28;20215;-75
2023/01/15 13:19:09;;;;;;;2.00;0.97;;;8.50;99.90;;;;;;5052097;28;20215;-75
2023/01/15 13:21:37;;;;;;;2.23;0.77;;;8.50;99.90;;;;;;5038308;28;20207;-74
2023/01/15 13:24:05;;;;;;;2.23;0.90;;;8.50;99.90;;;;;;5054652;28;20213;-73
2023/01/15 13:26:46;;;;;;;1.10;0.57;;;8.40;99.90;;;;;;5055553;28;20211;-73
2023/01/15 13:29:30;;;;;;;3.33;0.83;;;8.40;99.90;;;;;;5039637;28;20222;-74
2023/01/15 13:32:05;;;;;;;1.50;0.83;;;8.20;99.90;;;;;;5053479;28;20239;-75
2023/01/15 13:34:43;;;;;;;1.13;0.80;;;8.10;99.90;;;;;;5057374;28;20210;-76
2023/01/15 13:37:19;;;;;;;1.10;0.50;;;8.10;99.90;;;;;;5055871;28;20207;-75
2023/01/15 13:39:46;;;;;;;3.43;0.70;;;8.00;99.90;;;;;;5030160;28;20216;-76
2023/01/15 13:42:30;;;;;;;0.80;0.70;;;7.90;99.90;;;;;;5058610;28;20178;-74
2023/01/15 13:45:03;;;;;;;2.27;1.17;;;7.90;99.90;;;;;;5033734;28;20180;-75
2023/01/15 13:47:34;;;;;;;1.50;0.80;;;7.80;99.90;;;;;;5058241;28;20219;-75
2023/01/15 13:50:12;;;;;;;2.73;0.90;;;7.80;99.90;;;;;;5056733;28;20227;-75
2023/01/15 13:52:38;;;;;;;1.73;1.10;;;7.70;99.90;;;;;;5049783;28;20227;-75
2023/01/15 13:55:11;;;;;;;2.23;0.63;;;7.70;99.90;;;;;;5039960;28;20298;-76
2023/01/15 13:57:39;;;;;;;6.60;1.10;;;7.70;99.90;;;;;;5032819;28;20207;-72
2023/01/15 14:00:33;;;;;;;7.73;1.63;;;7.80;99.90;;;;;;5053638;28;20180;-75
2023/01/15 14:03:01;;;;;;;3.73;1.13;;;7.80;99.90;;;;;;5037674;28;20292;-75
2023/01/15 14:05:36;;;;;;;5.07;1.27;;;7.90;99.90;;;;;;5053748;28;20238;-75
2023/01/15 14:08:15;;;;;;;3.17;1.00;;;7.90;99.90;;;;;;5040637;28;20306;-76
2023/01/15 14:10:41;;;;;;;2.83;1.73;;;7.90;99.90;;;;;;5052113;28;20297;-75
2023/01/15 14:13:25;;;;;;;3.60;1.07;;;7.90;99.90;;;;;;5035832;28;20292;-76
2023/01/15 14:16:11;;;;;;;1.87;1.07;;;7.90;99.90;;;;;;5033365;28;20599;-74
2023/01/15 14:19:06;;;;;;;4.10;0.90;;;7.80;99.90;;;;;;5051665;28;20730;-74